Time;durP1;ratioP1;P1;durP2;ratioP2;P2;SDS_P1;SDS_P2;PMS_P1;PMS_P2;Temp;Humidity;BMP_temperature;BMP_pressure;BME280_temperature;BME280_humidity;BME280_pressure;Samples;Min_cycle;Max_cycle;Signal;HPM_P1;HPM_P2
2024/01/28 00:01:39;;;;;;;26.67;17.30;;;-0.60;99.90;;;;;;5094673;28;20169;-63
2024/01/28 00:04:04;;;;;;;26.43;17.73;;;-0.60;99.90;;;;;;5094724;28;20168;-63
2024/01/28 00:06:30;;;;;;;28.20;17.73;;;-0.50;99.90;;;;;;5094798;28;20553;-62
2024/01/28 00:08:56;;;;;;;25.03;17.60;;;-0.50;99.90;;;;;;5094485;28;20638;-63
2024/01/28 00:11:22;;;;;;;23.43;16.03;;;-0.50;99.90;;;;;;5093992;28;20215;-63
2024/01/28 00:13:47;;;;;;;27.97;16.57;;;-0.50;99.90;;;;;;5092973;28;20173;-63
2024/01/28 00:16:17;;;;;;;25.73;17.60;;;-0.50;99.90;;;;;;5094235;28;20176;-63
2024/01/28 00:18:43;;;;;;;25.60;16.53;;;-0.60;99.90;;;;;;5094373;28;20173;-63
2024/01/28 00:21:10;;;;;;;26.60;16.47;;;-0.60;99.90;;;;;;5094233;28;20204;-63
2024/01/28 00:23:36;;;;;;;26.37;16.77;;;-0.70;99.90;;;;;;5094187;28;20673;-63
2024/01/28 00:26:02;;;;;;;23.10;16.50;;;-0.60;99.90;;;;;;5093752;28;20181;-63
2024/01/28 00:28:28;;;;;;;23.53;16.23;;;-0.60;99.90;;;;;;5092848;28;20189;-63
2024/01/28 00:30:54;;;;;;;20.70;16.13;;;-0.50;99.90;;;;;;5094063;28;20196;-63
2024/01/28 00:33:20;;;;;;;21.60;16.87;;;-0.50;99.90;;;;;;5094103;28;20541;-63
2024/01/28 00:35:46;;;;;;;19.00;14.53;;;-0.50;99.90;;;;;;5093931;28;20266;-63
2024/01/28 00:38:12;;;;;;;25.03;15.57;;;-0.50;99.90;;;;;;5094170;28;20572;-63
2024/01/28 00:40:38;;;;;;;29.87;15.93;;;-0.50;99.90;;;;;;5093998;28;20285;-63
2024/01/28 00:43:04;;;;;;;22.90;16.70;;;-0.50;99.90;;;;;;5093821;28;20264;-63
2024/01/28 00:45:31;;;;;;;25.33;16.17;;;-0.70;99.90;;;;;;5093890;28;20180;-63
2024/01/28 00:47:57;;;;;;;19.20;15.83;;;-0.70;99.90;;;;;;5093609;28;20199;-64
2024/01/28 00:50:22;;;;;;;25.10;16.97;;;-0.70;99.90;;;;;;5093958;28;20193;-63
2024/01/28 00:52:48;;;;;;;23.60;15.83;;;-0.70;99.90;;;;;;5092800;28;20207;-63
2024/01/28 00:55:14;;;;;;;22.37;16.47;;;-0.70;99.90;;;;;;5093970;28;20169;-63
2024/01/28 00:57:41;;;;;;;18.33;15.00;;;-0.70;99.90;;;;;;5093709;28;20199;-63
2024/01/28 01:00:08;;;;;;;22.90;15.07;;;-0.70;99.90;;;;;;5093528;28;20185;-63
2024/01/28 01:02:34;;;;;;;23.83;16.23;;;-0.70;99.90;;;;;;5093752;28;20203;-63
2024/01/28 01:05:00;;;;;;;22.30;15.67;;;-0.80;99.90;;;;;;5093388;28;20180;-63
2024/01/28 01:07:26;;;;;;;22.97;15.50;;;-0.70;99.90;;;;;;5092115;28;20177;-63
2024/01/28 01:09:52;;;;;;;22.37;14.17;;;-0.70;99.90;;;;;;5093348;28;20213;-63
2024/01/28 01:12:18;;;;;;;20.47;15.03;;;-0.70;99.90;;;;;;5093299;28;20218;-63
2024/01/28 01:14:44;;;;;;;20.80;14.93;;;-0.80;99.90;;;;;;5096393;28;20208;-63
2024/01/28 01:17:09;;;;;;;21.57;15.43;;;-0.80;99.90;;;;;;5098766;28;20173;-63
2024/01/28 01:19:35;;;;;;;24.13;15.50;;;-0.80;99.90;;;;;;5100636;28;20204;-63
2024/01/28 01:22:02;;;;;;;21.43;14.87;;;-0.90;99.90;;;;;;5100091;28;20256;-63
2024/01/28 01:24:28;;;;;;;19.57;15.40;;;-0.90;99.90;;;;;;5100359;28;20531;-63
2024/01/28 01:26:54;;;;;;;19.37;14.83;;;-1.00;99.90;;;;;;5099687;28;20177;-63
2024/01/28 01:29:20;;;;;;;23.10;15.67;;;-1.00;99.90;;;;;;5100417;28;20228;-63
2024/01/28 01:31:47;;;;;;;21.00;14.13;;;-0.90;99.90;;;;;;5100145;28;20256;-63
2024/01/28 01:34:13;;;;;;;24.23;15.60;;;-1.00;99.90;;;;;;5100545;28;20168;-63
2024/01/28 01:36:43;;;;;;;20.60;14.40;;;-1.00;99.90;;;;;;5100104;28;20180;-63
2024/01/28 01:39:09;;;;;;;17.90;14.00;;;-1.10;99.90;;;;;;5100411;28;20244;-63
2024/01/28 01:41:35;;;;;;;20.70;14.50;;;-1.00;99.90;;;;;;5099653;28;20177;-63
2024/01/28 01:44:00;;;;;;;20.07;14.03;;;-1.00;99.90;;;;;;5100081;28;20173;-63
2024/01/28 01:46:27;;;;;;;18.57;14.63;;;-0.90;99.90;;;;;;5100015;28;20181;-64
2024/01/28 01:48:53;;;;;;;20.73;14.63;;;-0.90;99.90;;;;;;5099777;28;20197;-63
2024/01/28 01:51:21;;;;;;;20.53;13.93;;;-0.90;99.90;;;;;;5099743;28;20238;-63
2024/01/28 01:53:48;;;;;;;18.63;14.87;;;-0.90;99.90;;;;;;5099742;28;20198;-63
2024/01/28 01:56:14;;;;;;;19.00;14.73;;;-0.90;99.90;;;;;;5099795;28;20204;-63
2024/01/28 01:58:40;;;;;;;16.00;13.67;;;-0.90;99.90;;;;;;5099621;28;20184;-63
2024/01/28 02:01:07;;;;;;;17.97;13.50;;;-0.90;99.90;;;;;;5098341;28;20199;-63
2024/01/28 02:03:35;;;;;;;18.03;14.30;;;-1.00;99.90;;;;;;5098777;28;20232;-63
2024/01/28 02:06:01;;;;;;;22.30;14.93;;;-1.00;99.90;;;;;;5100097;28;20227;-63
2024/01/28 02:08:28;;;;;;;20.70;14.60;;;-1.00;99.90;;;;;;5100488;28;20602;-63
2024/01/28 02:10:54;;;;;;;18.17;13.83;;;-1.00;99.90;;;;;;5098899;28;20228;-62
2024/01/28 02:13:19;;;;;;;19.13;14.63;;;-1.00;99.90;;;;;;5099809;28;20208;-63
2024/01/28 02:15:45;;;;;;;22.47;13.67;;;-1.00;99.90;;;;;;5100213;28;20185;-63
2024/01/28 02:18:11;;;;;;;19.63;14.73;;;-1.00;99.90;;;;;;5099654;28;20259;-63
2024/01/28 02:20:37;;;;;;;15.23;13.63;;;-1.00;99.90;;;;;;5099795;28;20228;-63
2024/01/28 02:23:05;;;;;;;20.93;13.67;;;-1.00;99.90;;;;;;5099898;28;20180;-63
2024/01/28 02:25:33;;;;;;;19.13;13.40;;;-1.00;99.90;;;;;;5098363;28;20196;-63
2024/01/28 02:27:58;;;;;;;18.43;13.50;;;-1.00;99.90;;;;;;5093900;28;20274;-63
2024/01/28 02:30:24;;;;;;;17.97;14.00;;;-1.00;99.90;;;;;;5096574;28;20189;-63
2024/01/28 02:32:51;;;;;;;14.90;13.30;;;-1.00;99.90;;;;;;5096572;28;20538;-63
2024/01/28 02:35:18;;;;;;;17.83;13.33;;;-1.00;99.90;;;;;;5096145;28;20241;-63
2024/01/28 02:37:44;;;;;;;17.30;13.27;;;-1.00;99.90;;;;;;5096289;28;20543;-63
2024/01/28 02:40:10;;;;;;;14.30;12.77;;;-0.90;99.90;;;;;;5096372;28;20641;-63
2024/01/28 02:42:36;;;;;;;15.53;13.80;;;-0.90;99.90;;;;;;5095798;28;20223;-64
2024/01/28 02:45:02;;;;;;;17.83;12.87;;;-0.90;99.90;;;;;;5094718;28;20204;-64
2024/01/28 02:47:28;;;;;;;14.83;12.93;;;-0.90;99.90;;;;;;5095921;28;20180;-63
2024/01/28 02:49:53;;;;;;;14.40;12.93;;;-0.80;99.90;;;;;;5095823;28;20687;-63
2024/01/28 02:52:19;;;;;;;17.80;12.03;;;-0.80;99.90;;;;;;5096450;28;20593;-63
2024/01/28 02:54:45;;;;;;;15.60;12.50;;;-0.80;99.90;;;;;;5096054;28;20265;-63
2024/01/28 02:57:11;;;;;;;20.13;12.37;;;-0.80;99.90;;;;;;5095550;28;20193;-63
2024/01/28 02:59:37;;;;;;;15.33;12.07;;;-0.90;99.90;;;;;;5095698;28;20197;-63
2024/01/28 03:02:03;;;;;;;18.70;13.07;;;-0.90;99.90;;;;;;5095659;28;20264;-63
2024/01/28 03:04:28;;;;;;;14.20;12.17;;;-1.00;99.90;;;;;;5095724;28;20200;-63
2024/01/28 03:06:54;;;;;;;18.70;12.30;;;-1.10;99.90;;;;;;5095442;28;20184;-63
2024/01/28 03:09:20;;;;;;;15.03;12.87;;;-1.10;99.90;;;;;;5095510;28;20737;-63
2024/01/28 03:11:46;;;;;;;19.33;12.60;;;-1.20;99.90;;;;;;5095230;28;20181;-63
2024/01/28 03:14:12;;;;;;;14.07;12.43;;;-1.20;99.90;;;;;;5094210;28;20177;-63
2024/01/28 03:16:38;;;;;;;13.60;12.27;;;-1.20;99.90;;;;;;5095621;28;20644;-63
2024/01/28 03:19:03;;;;;;;19.37;12.60;;;-1.10;99.90;;;;;;5095389;28;20181;-63
2024/01/28 03:21:30;;;;;;;20.83;12.40;;;-1.10;99.90;;;;;;5095908;28;20181;-63
2024/01/28 03:23:56;;;;;;;13.80;11.53;;;-1.10;99.90;;;;;;5095403;28;20181;-63
2024/01/28 03:26:22;;;;;;;17.07;12.27;;;-1.10;99.90;;;;;;5094987;28;20625;-63
2024/01/28 03:28:48;;;;;;;14.00;12.23;;;-1.10;99.90;;;;;;5095235;28;20288;-63
2024/01/28 03:31:14;;;;;;;13.90;11.47;;;-1.10;99.90;;;;;;5095042;28;20277;-63
2024/01/28 03:33:40;;;;;;;15.53;12.10;;;-1.10;99.90;;;;;;5095061;28;20174;-64
2024/01/28 03:36:06;;;;;;;19.90;11.53;;;-1.00;99.90;;;;;;5094960;28;20227;-63
2024/01/28 03:38:32;;;;;;;17.83;12.27;;;-1.10;99.90;;;;;;5093447;28;20218;-63
2024/01/28 03:40:58;;;;;;;14.97;12.17;;;-1.10;99.90;;;;;;5095250;28;20200;-63
2024/01/28 03:43:24;;;;;;;17.47;12.83;;;-1.20;99.90;;;;;;5094595;28;20176;-63
2024/01/28 03:45:50;;;;;;;12.97;11.67;;;-1.10;99.90;;;;;;5095001;28;20234;-63
2024/01/28 03:48:15;;;;;;;14.93;12.37;;;-1.10;99.90;;;;;;5094675;28;20204;-63
2024/01/28 03:50:41;;;;;;;13.77;12.07;;;-1.10;99.90;;;;;;5094543;28;20240;-63
2024/01/28 03:53:07;;;;;;;16.07;12.67;;;-1.00;99.90;;;;;;5094717;28;20170;-63
2024/01/28 03:55:33;;;;;;;15.13;12.20;;;-1.00;99.90;;;;;;5094959;28;20189;-63
2024/01/28 03:57:58;;;;;;;13.90;12.50;;;-1.00;99.90;;;;;;5094390;28;20276;-64
2024/01/28 04:00:28;;;;;;;17.87;12.80;;;-1.00;99.90;;;;;;5094724;28;20228;-63
2024/01/28 04:02:56;;;;;;;14.10;11.87;;;-0.90;99.90;;;;;;5094086;28;20249;-63
2024/01/28 04:05:22;;;;;;;16.17;11.70;;;-0.90;99.90;;;;;;5094412;28;20535;-63
2024/01/28 04:07:48;;;;;;;12.50;11.20;;;-1.00;99.90;;;;;;5094589;28;20176;-63
2024/01/28 04:10:17;;;;;;;13.70;11.77;;;-1.10;99.90;;;;;;5094438;28;20583;-63
2024/01/28 04:12:43;;;;;;;18.87;10.67;;;-1.10;99.90;;;;;;5094052;28;20634;-63
2024/01/28 04:15:09;;;;;;;11.70;10.53;;;-1.10;99.90;;;;;;5094484;28;20171;-63
2024/01/28 04:17:35;;;;;;;14.00;11.40;;;-1.10;99.90;;;;;;5094630;28;20245;-63
2024/01/28 04:20:03;;;;;;;21.63;12.63;;;-1.10;99.90;;;;;;5092965;28;20224;-63
2024/01/28 04:22:30;;;;;;;15.70;12.00;;;-1.10;99.90;;;;;;5094148;28;20168;-63
2024/01/28 04:24:56;;;;;;;12.83;11.57;;;-1.10;99.90;;;;;;5094017;28;20180;-63
2024/01/28 04:27:21;;;;;;;18.30;11.93;;;-1.00;99.90;;;;;;5094042;28;20173;-63
2024/01/28 04:29:47;;;;;;;14.97;11.50;;;-1.00;99.90;;;;;;5094226;28;20262;-63
2024/01/28 04:32:14;;;;;;;12.13;10.73;;;-1.10;99.90;;;;;;5094140;28;20184;-63
2024/01/28 04:34:40;;;;;;;13.23;10.87;;;-1.10;99.90;;;;;;5093920;28;20248;-63
2024/01/28 04:37:06;;;;;;;12.50;11.07;;;-1.10;99.90;;;;;;5093892;28;20256;-63
2024/01/28 04:39:34;;;;;;;12.77;11.10;;;-1.10;99.90;;;;;;5093916;28;20195;-63
2024/01/28 04:42:01;;;;;;;12.07;10.97;;;-1.10;99.90;;;;;;5093505;28;20173;-63
2024/01/28 04:44:27;;;;;;;12.87;11.30;;;-1.10;99.90;;;;;;5093779;28;20165;-63
2024/01/28 04:46:55;;;;;;;14.53;10.97;;;-1.20;99.90;;;;;;5093823;28;20183;-63
2024/01/28 04:49:21;;;;;;;12.37;11.07;;;-1.20;99.90;;;;;;5092983;28;20206;-63
2024/01/28 04:51:47;;;;;;;18.07;11.67;;;-1.20;99.90;;;;;;5093916;28;20165;-63
2024/01/28 04:54:14;;;;;;;13.00;11.67;;;-1.20;99.90;;;;;;5093850;28;20630;-63
2024/01/28 04:56:40;;;;;;;16.33;12.43;;;-1.20;99.90;;;;;;5093375;28;20180;-63
2024/01/28 04:59:06;;;;;;;15.20;10.83;;;-1.20;99.90;;;;;;5093350;28;20196;-63
2024/01/28 05:01:33;;;;;;;13.13;10.83;;;-1.20;99.90;;;;;;5093644;28;20181;-63
2024/01/28 05:04:01;;;;;;;15.27;11.60;;;-1.30;99.90;;;;;;5092233;28;20209;-63
2024/01/28 05:06:34;;;;;;;13.03;11.63;;;-1.30;99.90;;;;;;5094090;28;20153;-63
2024/01/28 05:09:04;;;;;;;12.93;11.67;;;-1.30;99.90;;;;;;5092372;28;20211;-64
2024/01/28 05:11:31;;;;;;;15.67;11.17;;;-1.30;99.90;;;;;;5093336;28;20642;-63
2024/01/28 05:13:57;;;;;;;15.47;11.83;;;-1.30;99.90;;;;;;5093640;28;20541;-63
2024/01/28 05:16:24;;;;;;;13.50;12.37;;;-1.20;99.90;;;;;;5093369;28;20173;-63
2024/01/28 05:18:51;;;;;;;13.70;12.13;;;-1.30;99.90;;;;;;5093376;28;20165;-63
2024/01/28 05:21:18;;;;;;;14.93;13.33;;;-1.30;99.90;;;;;;5093429;28;20189;-63
2024/01/28 05:23:47;;;;;;;15.83;12.53;;;-1.30;99.90;;;;;;5093487;28;20256;-64
2024/01/28 05:26:15;;;;;;;13.87;12.50;;;-1.30;99.90;;;;;;5093373;28;20558;-63
2024/01/28 05:28:41;;;;;;;15.27;12.13;;;-1.30;99.90;;;;;;5093283;28;20255;-63
2024/01/28 05:31:08;;;;;;;12.53;11.33;;;-1.30;99.90;;;;;;5093184;28;20657;-63
2024/01/28 05:33:37;;;;;;;13.03;10.97;;;-1.30;99.90;;;;;;5093579;28;20651;-63
2024/01/28 05:36:15;;;;;;;15.43;11.23;;;-1.30;99.90;;;;;;5093415;28;20623;-63
2024/01/28 05:38:41;;;;;;;14.10;11.37;;;-1.30;99.90;;;;;;5093264;28;20630;-63
2024/01/28 05:41:08;;;;;;;11.80;10.70;;;-1.30;99.90;;;;;;5093234;28;20704;-63
2024/01/28 05:43:34;;;;;;;15.50;11.10;;;-1.40;99.90;;;;;;5091692;28;20173;-63
2024/01/28 05:46:03;;;;;;;11.60;10.37;;;-1.40;99.90;;;;;;5093045;28;20173;-63
2024/01/28 05:48:29;;;;;;;12.37;11.10;;;-1.50;99.90;;;;;;5093110;28;20574;-64
2024/01/28 05:50:55;;;;;;;15.83;10.33;;;-1.50;99.90;;;;;;5093058;28;20204;-63
2024/01/28 05:53:21;;;;;;;11.20;10.03;;;-1.60;99.90;;;;;;5093330;28;20173;-63
2024/01/28 05:55:47;;;;;;;11.83;10.80;;;-1.50;99.90;;;;;;5093246;28;20543;-63
2024/01/28 05:58:12;;;;;;;15.13;10.60;;;-1.50;99.90;;;;;;5092709;28;20191;-63
2024/01/28 06:00:38;;;;;;;13.67;11.10;;;-1.50;99.90;;;;;;5094358;28;20268;-63
2024/01/28 06:03:04;;;;;;;11.60;10.50;;;-1.60;99.90;;;;;;5097383;28;20546;-63
2024/01/28 06:05:30;;;;;;;11.70;10.50;;;-1.60;99.90;;;;;;5096853;28;20181;-63
2024/01/28 06:07:55;;;;;;;14.80;9.60;;;-1.60;99.90;;;;;;5096973;28;20185;-63
2024/01/28 06:10:21;;;;;;;13.63;10.47;;;-1.60;99.90;;;;;;5096695;28;20685;-63
2024/01/28 06:12:47;;;;;;;12.43;10.73;;;-1.70;99.90;;;;;;5096609;28;20165;-63
2024/01/28 06:15:13;;;;;;;14.43;10.03;;;-1.70;99.90;;;;;;5095444;28;20651;-63
2024/01/28 06:17:39;;;;;;;15.87;10.83;;;-1.70;99.90;;;;;;5096604;28;20508;-64
2024/01/28 06:20:06;;;;;;;13.17;9.90;;;-1.70;99.90;;;;;;5096605;28;20189;-63
2024/01/28 06:22:32;;;;;;;10.70;9.70;;;-1.70;99.90;;;;;;5096550;28;20311;-63
2024/01/28 06:24:59;;;;;;;10.47;9.43;;;-1.70;99.90;;;;;;5096431;28;20162;-63
2024/01/28 06:27:25;;;;;;;12.10;9.73;;;-1.80;99.90;;;;;;5096474;28;20583;-63
2024/01/28 06:29:51;;;;;;;13.20;10.17;;;-1.80;99.90;;;;;;5096376;28;20209;-63
2024/01/28 06:32:17;;;;;;;10.27;9.33;;;-1.90;99.90;;;;;;5096291;28;20544;-63
2024/01/28 06:34:44;;;;;;;10.37;9.47;;;-1.90;99.90;;;;;;5095127;28;20183;-63
2024/01/28 06:37:10;;;;;;;9.63;8.80;;;-1.90;99.90;;;;;;5095996;28;20233;-63
2024/01/28 06:39:36;;;;;;;10.17;9.27;;;-1.80;99.90;;;;;;5097203;28;20242;-65
2024/01/28 06:42:02;;;;;;;9.70;8.90;;;-1.80;99.90;;;;;;5096657;28;20173;-66
2024/01/28 06:44:28;;;;;;;14.30;9.47;;;-1.80;99.90;;;;;;5097148;28;20180;-65
2024/01/28 06:46:53;;;;;;;9.83;9.03;;;-1.80;99.90;;;;;;5096473;28;20173;-66
2024/01/28 06:49:20;;;;;;;11.07;9.43;;;-1.90;99.90;;;;;;5096483;28;20690;-66
2024/01/28 06:51:45;;;;;;;9.40;8.50;;;-1.90;99.90;;;;;;5096488;28;20222;-66
2024/01/28 06:54:11;;;;;;;11.33;9.87;;;-1.90;99.90;;;;;;5096881;28;20236;-66
2024/01/28 06:56:37;;;;;;;10.37;9.27;;;-1.90;99.90;;;;;;5096555;28;20181;-66
2024/01/28 06:59:03;;;;;;;10.07;9.07;;;-1.90;99.90;;;;;;5094849;28;20193;-65
2024/01/28 07:01:29;;;;;;;11.30;10.23;;;-1.90;99.90;;;;;;5094857;28;20572;-66
2024/01/28 07:03:54;;;;;;;10.70;9.63;;;-1.90;99.90;;;;;;5095128;28;20318;-66
2024/01/28 07:06:20;;;;;;;10.40;9.40;;;-1.90;99.90;;;;;;5095549;28;20252;-66
2024/01/28 07:08:46;;;;;;;10.53;9.20;;;-1.90;99.90;;;;;;5096279;28;20251;-65
2024/01/28 07:11:12;;;;;;;13.93;10.20;;;-2.00;99.90;;;;;;5096138;28;20664;-65
2024/01/28 07:13:38;;;;;;;12.30;9.87;;;-2.00;99.90;;;;;;5095220;28;20173;-66
2024/01/28 07:16:05;;;;;;;10.40;9.50;;;-2.00;99.90;;;;;;5096068;28;20646;-65
2024/01/28 07:18:31;;;;;;;11.40;10.30;;;-1.90;99.90;;;;;;5096520;28;20200;-65
2024/01/28 07:20:57;;;;;;;10.57;9.57;;;-2.00;99.90;;;;;;5096172;28;20189;-65
2024/01/28 07:23:22;;;;;;;11.90;10.73;;;-1.90;99.90;;;;;;5096198;28;20234;-65
2024/01/28 07:25:48;;;;;;;11.40;10.40;;;-1.90;99.90;;;;;;5095894;28;20230;-65
2024/01/28 07:28:14;;;;;;;10.77;9.80;;;-1.90;99.90;;;;;;5095761;28;20189;-65
2024/01/28 07:30:40;;;;;;;11.10;10.00;;;-1.90;99.90;;;;;;5096455;28;20253;-66
2024/01/28 07:33:08;;;;;;;11.37;10.30;;;-1.90;99.90;;;;;;5095906;28;20180;-65
2024/01/28 07:35:37;;;;;;;11.30;10.20;;;-1.90;99.90;;;;;;5094613;28;20177;-66
2024/01/28 07:38:03;;;;;;;11.93;10.90;;;-1.90;99.90;;;;;;5095751;28;20169;-65
2024/01/28 07:40:29;;;;;;;11.53;10.60;;;-1.90;99.90;;;;;;5094339;28;20224;-66
2024/01/28 07:42:55;;;;;;;11.17;10.07;;;-1.90;99.90;;;;;;5095372;28;20165;-65
2024/01/28 07:45:21;;;;;;;12.23;11.13;;;-1.90;99.90;;;;;;5095108;28;20548;-65
2024/01/28 07:47:47;;;;;;;11.90;10.80;;;-1.80;99.90;;;;;;5095153;28;20169;-65
2024/01/28 07:50:13;;;;;;;12.10;10.90;;;-1.80;99.90;;;;;;5095076;28;20209;-66
2024/01/28 07:52:40;;;;;;;11.83;10.70;;;-1.80;99.90;;;;;;5095325;28;20173;-65
2024/01/28 07:55:06;;;;;;;12.57;11.47;;;-1.80;99.90;;;;;;5094780;28;20653;-65
2024/01/28 07:57:32;;;;;;;12.23;11.00;;;-1.70;99.90;;;;;;5094287;28;20213;-64
2024/01/28 07:59:58;;;;;;;12.83;11.37;;;-1.70;99.90;;;;;;5094808;28;20197;-65
2024/01/28 08:02:24;;;;;;;13.00;11.67;;;-1.70;99.90;;;;;;5094727;28;20184;-65
2024/01/28 08:04:49;;;;;;;15.20;12.13;;;-1.70;99.90;;;;;;5094887;28;20184;-64
2024/01/28 08:07:15;;;;;;;13.00;11.77;;;-1.70;99.90;;;;;;5094767;28;20173;-65
2024/01/28 08:09:41;;;;;;;13.63;12.23;;;-1.60;99.90;;;;;;5094768;28;20215;-65
2024/01/28 08:12:07;;;;;;;13.47;11.83;;;-1.70;99.90;;;;;;5094686;28;20374;-65
2024/01/28 08:14:33;;;;;;;15.57;12.97;;;-1.60;99.90;;;;;;5092920;28;20745;-64
2024/01/28 08:16:59;;;;;;;14.73;11.83;;;-1.60;99.90;;;;;;5094794;28;20553;-64
2024/01/28 08:19:25;;;;;;;15.80;12.27;;;-1.60;99.90;;;;;;5095007;28;20540;-65
2024/01/28 08:21:51;;;;;;;15.97;13.27;;;-1.60;99.90;;;;;;5094103;28;20255;-64
2024/01/28 08:24:17;;;;;;;17.33;13.60;;;-1.50;99.90;;;;;;5093201;28;20181;-65
2024/01/28 08:26:43;;;;;;;14.43;13.00;;;-1.50;99.90;;;;;;5094398;28;20273;-65
2024/01/28 08:29:08;;;;;;;14.63;13.17;;;-1.40;99.90;;;;;;5093627;28;20223;-65
2024/01/28 08:31:34;;;;;;;14.10;12.33;;;-1.40;99.90;;;;;;5094010;28;20176;-65
2024/01/28 08:34:00;;;;;;;16.37;13.30;;;-1.30;99.90;;;;;;5095074;28;20177;-65
2024/01/28 08:36:27;;;;;;;18.27;15.77;;;-1.30;99.90;;;;;;5094013;28;20179;-65
2024/01/28 08:38:52;;;;;;;15.07;13.67;;;-1.30;99.90;;;;;;5093173;28;20212;-65
2024/01/28 08:41:18;;;;;;;14.80;13.30;;;-1.20;99.90;;;;;;5093185;28;20201;-65
2024/01/28 08:43:44;;;;;;;16.00;12.97;;;-1.10;99.90;;;;;;5093956;28;20677;-65
2024/01/28 08:46:10;;;;;;;13.90;12.67;;;-1.00;99.90;;;;;;5094516;28;20515;-65
2024/01/28 08:48:37;;;;;;;15.03;13.40;;;-0.90;99.90;;;;;;5094079;28;20197;-65
2024/01/28 08:51:02;;;;;;;14.23;12.83;;;-0.90;99.90;;;;;;5094053;28;20196;-64
2024/01/28 08:53:29;;;;;;;20.40;14.37;;;-0.80;99.90;;;;;;5094384;28;20563;-65
2024/01/28 08:55:56;;;;;;;17.63;13.57;;;-0.80;99.90;;;;;;5094438;28;20190;-64
2024/01/28 08:58:22;;;;;;;14.60;13.20;;;-0.70;99.90;;;;;;5093534;28;20189;-64
2024/01/28 09:00:47;;;;;;;12.97;11.73;;;-0.70;99.90;;;;;;5094129;28;20246;-65
2024/01/28 09:03:13;;;;;;;13.93;12.57;;;-0.60;99.90;;;;;;5094207;28;20177;-66
2024/01/28 09:05:39;;;;;;;13.60;12.23;;;-0.50;99.90;;;;;;5093469;28;20157;-65
2024/01/28 09:08:05;;;;;;;13.70;12.43;;;-0.40;99.90;;;;;;5094834;28;20257;-65
2024/01/28 09:10:31;;;;;;;16.77;13.00;;;-0.40;99.90;;;;;;5094386;28;20273;-65
2024/01/28 09:12:56;;;;;;;12.57;11.47;;;-0.30;99.90;;;;;;5093800;28;20181;-65
2024/01/28 09:15:23;;;;;;;13.80;11.83;;;-0.20;99.90;;;;;;5094149;28;20177;-65
2024/01/28 09:17:49;;;;;;;13.13;11.83;;;-0.10;99.90;;;;;;5094428;28;20252;-66
2024/01/28 09:20:15;;;;;;;13.83;12.40;;;0.00;99.90;;;;;;5093991;28;20188;-66
2024/01/28 09:22:41;;;;;;;13.10;11.80;;;0.00;99.90;;;;;;5094267;28;20168;-66
2024/01/28 09:25:07;;;;;;;15.37;13.73;;;0.10;99.90;;;;;;5093971;28;20184;-66
2024/01/28 09:27:33;;;;;;;16.20;13.60;;;0.20;99.90;;;;;;5092448;28;20543;-66
2024/01/28 09:29:59;;;;;;;17.53;13.93;;;0.30;99.90;;;;;;5092965;28;20214;-67
2024/01/28 09:32:24;;;;;;;14.67;12.53;;;0.40;99.90;;;;;;5092467;28;20634;-67
2024/01/28 09:34:51;;;;;;;14.00;12.60;;;0.50;99.90;;;;;;5093958;28;20160;-66
2024/01/28 09:37:18;;;;;;;16.37;12.90;;;0.60;99.90;;;;;;5097331;28;20169;-66
2024/01/28 09:39:44;;;;;;;18.77;12.50;;;0.80;99.90;;;;;;5097858;28;20199;-66
2024/01/28 09:42:24;;;;;;;16.50;12.37;;;0.90;99.90;;;;;;5097558;27;20168;-66
2024/01/28 09:44:49;;;;;;;14.60;13.10;;;1.00;99.90;;;;;;5122785;27;20172;-66
2024/01/28 09:47:19;;;;;;;14.63;13.07;;;1.10;99.90;;;;;;5117522;27;20167;-67
2024/01/28 09:49:46;;;;;;;14.47;12.90;;;1.30;99.90;;;;;;5117504;28;20227;-66
2024/01/28 09:52:13;;;;;;;13.67;10.87;;;1.50;99.90;;;;;;5118430;28;20168;-66
2024/01/28 09:54:44;;;;;;;14.13;11.37;;;1.70;99.90;;;;;;5118622;28;20164;-66
2024/01/28 09:57:11;;;;;;;13.63;12.23;;;1.80;99.90;;;;;;5097517;28;20193;-66
2024/01/28 09:59:37;;;;;;;12.13;10.87;;;2.00;99.90;;;;;;5106731;28;20260;-66
2024/01/28 10:02:05;;;;;;;10.60;9.50;;;2.30;99.90;;;;;;5117411;28;20181;-66
2024/01/28 10:04:31;;;;;;;13.03;9.97;;;2.60;99.90;;;;;;5118039;28;20244;-66
2024/01/28 10:06:59;;;;;;;12.27;9.03;;;2.90;99.90;;;;;;5117613;28;20168;-66
2024/01/28 10:09:26;;;;;;;8.60;8.00;;;3.30;99.90;;;;;;5106899;28;20249;-66
2024/01/28 10:11:52;;;;;;;9.17;8.30;;;4.00;1.00;;;;;;5097208;28;20166;-66
2024/01/28 10:14:18;;;;;;;8.77;7.83;;;4.50;1.00;;;;;;5096884;28;20517;-66
2024/01/28 10:16:48;;;;;;;7.80;7.20;;;4.90;99.90;;;;;;5097115;28;20164;-66
2024/01/28 10:19:14;;;;;;;8.30;7.50;;;5.10;1.00;;;;;;5096855;28;20238;-66
2024/01/28 10:21:42;;;;;;;7.50;7.00;;;5.20;1.00;;;;;;5097030;28;20176;-66
2024/01/28 10:24:09;;;;;;;7.80;7.00;;;5.40;91.60;;;;;;5096947;28;20656;-66
2024/01/28 10:26:35;;;;;;;7.97;7.47;;;5.60;1.00;;;;;;5097559;28;20647;-66
2024/01/28 10:29:01;;;;;;;7.07;6.67;;;5.70;79.80;;;;;;5096369;28;20193;-66
2024/01/28 10:31:26;;;;;;;7.40;6.90;;;6.00;1.00;;;;;;5096674;28;20228;-66
2024/01/28 10:33:52;;;;;;;7.63;6.93;;;6.30;99.90;;;;;;5096155;28;20177;-66
2024/01/28 10:36:18;;;;;;;9.17;6.83;;;6.50;99.90;;;;;;5096987;28;20169;-66
2024/01/28 10:38:46;;;;;;;6.90;6.20;;;6.80;99.90;;;;;;5095446;28;20650;-66
2024/01/28 10:41:18;;;;;;;7.47;6.27;;;7.00;99.90;;;;;;5095184;28;20189;-66
2024/01/28 10:44:07;;;;;;;6.60;6.10;;;7.30;1.00;;;;;;5096475;28;20271;-66
2024/01/28 10:46:38;;;;;;;7.07;6.40;;;7.60;99.90;;;;;;5091224;28;20193;-66
2024/01/28 10:49:09;;;;;;;7.90;6.27;;;7.70;99.90;;;;;;5095887;28;20200;-66
2024/01/28 10:51:37;;;;;;;6.40;5.90;;;8.00;1.00;;;;;;5097749;28;20157;-66
2024/01/28 10:54:05;;;;;;;6.57;5.97;;;8.10;1.00;;;;;;5096661;28;20544;-66
2024/01/28 10:56:32;;;;;;;6.30;5.80;;;8.30;1.00;;;;;;5096562;28;20176;-66
2024/01/28 10:58:58;;;;;;;6.20;5.70;;;8.40;41.40;;;;;;5112845;28;20609;-66
2024/01/28 11:01:25;;;;;;;5.70;5.30;;;8.60;99.90;;;;;;5116602;28;20214;-66
2024/01/28 11:03:53;;;;;;;6.77;5.63;;;8.70;1.00;;;;;;5116927;28;20550;-66
2024/01/28 11:06:19;;;;;;;6.10;5.60;;;8.90;1.00;;;;;;5116581;28;20169;-66
2024/01/28 11:08:46;;;;;;;5.63;5.20;;;9.10;99.90;;;;;;5116540;28;20275;-66
2024/01/28 11:11:15;;;;;;;6.20;5.60;;;9.50;16.30;;;;;;5116462;28;20568;-66
2024/01/28 11:13:42;;;;;;;6.90;6.23;;;9.60;66.30;;;;;;5115029;28;20175;-66
2024/01/28 11:16:11;;;;;;;7.43;6.23;;;9.80;1.00;;;;;;5115364;28;20174;-66
2024/01/28 11:18:37;;;;;;;7.13;5.60;;;9.90;1.00;;;;;;5116479;27;20177;-66
2024/01/28 11:21:19;;;;;;;6.30;5.70;;;10.00;1.00;;;;;;5115278;28;20267;-66
2024/01/28 11:23:47;;;;;;;6.20;5.70;;;10.10;99.90;;;;;;5116529;28;20161;-66
2024/01/28 11:26:20;;;;;;;6.28;5.70;;;10.30;23.30;;;;;;5105396;28;20201;-66
2024/01/28 11:28:47;;;;;;;5.88;5.38;;;10.40;1.00;;;;;;5095362;28;20193;-66
2024/01/28 11:31:33;;;;;;;5.93;5.43;;;10.60;1.00;;;;;;5095520;28;20250;-66
2024/01/28 11:34:20;;;;;;;6.20;5.18;;;10.80;1.00;;;;;;5095236;28;20153;-66
2024/01/28 11:36:53;;;;;;;5.60;5.20;;;11.00;1.00;;;;;;5095487;28;20146;-66
2024/01/28 11:39:34;;;;;;;5.15;4.80;;;11.20;1.00;;;;;;5093835;28;20173;-66
2024/01/28 11:42:01;;;;;;;5.50;5.00;;;11.30;1.00;;;;;;5095820;28;20171;-66
2024/01/28 11:44:28;;;;;;;5.20;4.70;;;11.50;1.00;;;;;;5095281;28;20158;-66
2024/01/28 11:46:55;;;;;;;5.78;4.95;;;11.60;1.00;;;;;;5095452;28;20173;-66
2024/01/28 11:49:21;;;;;;;5.15;4.75;;;11.80;99.90;;;;;;5093685;28;20201;-65
2024/01/28 11:51:47;;;;;;;5.18;4.85;;;12.00;99.90;;;;;;5095455;28;20585;-66
2024/01/28 11:54:13;;;;;;;5.10;4.70;;;12.10;99.90;;;;;;5094436;28;20594;-66
2024/01/28 11:56:39;;;;;;;4.97;4.65;;;12.30;99.90;;;;;;5095145;28;20195;-66
2024/01/28 11:59:06;;;;;;;5.15;4.65;;;12.40;99.90;;;;;;5094519;28;20551;-66
2024/01/28 12:01:32;;;;;;;5.15;4.60;;;12.50;99.90;;;;;;5093719;28;20197;-66
2024/01/28 12:03:58;;;;;;;5.10;4.80;;;12.60;99.90;;;;;;5095155;28;20199;-67
2024/01/28 12:06:27;;;;;;;5.38;4.90;;;12.80;99.90;;;;;;5095157;28;20168;-66
2024/01/28 12:08:53;;;;;;;4.60;4.30;;;12.80;1.00;;;;;;5092948;28;20205;-66
2024/01/28 12:11:24;;;;;;;5.00;4.60;;;12.90;1.00;;;;;;5094296;28;20535;-66
2024/01/28 12:13:50;;;;;;;4.68;4.28;;;13.00;1.00;;;;;;5092695;28;20220;-66
2024/01/28 12:16:23;;;;;;;4.82;4.43;;;13.10;1.00;;;;;;5094404;28;20242;-66
2024/01/28 12:18:53;;;;;;;5.03;4.53;;;13.30;1.00;;;;;;5093994;28;20169;-66
2024/01/28 12:21:21;;;;;;;5.10;4.70;;;13.40;1.00;;;;;;5094593;28;20197;-66
2024/01/28 12:23:48;;;;;;;4.80;4.40;;;13.50;1.00;;;;;;5094698;28;20173;-66
2024/01/28 12:26:15;;;;;;;5.00;4.50;;;13.60;1.00;;;;;;5094691;28;20231;-66
2024/01/28 12:28:43;;;;;;;4.63;4.30;;;13.60;1.00;;;;;;5094396;28;20563;-67
2024/01/28 12:31:09;;;;;;;4.70;4.30;;;13.70;1.00;;;;;;5094424;28;20185;-66